Time;durP1;ratioP1;P1;durP2;ratioP2;P2;SDS_P1;SDS_P2;PMS_P1;PMS_P2;Temp;Humidity;BMP_temperature;BMP_pressure;BME280_temperature;BME280_humidity;BME280_pressure;Samples;Min_cycle;Max_cycle;Signal;HPM_P1;HPM_P2
2022/11/22 00:00:39;;;;;;;14.43;3.45;;;;;;;;;;5086992;28;20048;-72
2022/11/22 00:03:10;;;;;;;7.45;3.55;;;;;;;;;;5086976;28;20400;-70
2022/11/22 00:05:40;;;;;;;10.45;2.85;;;;;;;;;;5086565;28;20048;-72
2022/11/22 00:08:11;;;;;;;18.15;3.60;;;;;;;;;;5087084;28;20517;-73
2022/11/22 00:10:41;;;;;;;15.32;4.03;;;;;;;;;;5085665;28;20056;-72
2022/11/22 00:13:11;;;;;;;13.82;3.38;;;;;;;;;;5087111;28;20070;-72
2022/11/22 00:15:41;;;;;;;18.00;3.25;;;;;;;;;;5086998;28;20040;-74
2022/11/22 00:18:11;;;;;;;12.38;3.20;;;;;;;;;;5086693;28;20036;-73
2022/11/22 00:20:41;;;;;;;11.90;3.80;;;;;;;;;;5086780;28;20040;-76
2022/11/22 00:23:11;;;;;;;15.77;2.78;;;;;;;;;;5086815;28;20081;-73
2022/11/22 00:25:41;;;;;;;18.63;2.92;;;;;;;;;;5087402;28;20040;-72
2022/11/22 00:28:11;;;;;;;6.35;2.17;;;;;;;;;;5086608;28;20056;-76
2022/11/22 00:30:40;;;;;;;4.90;2.60;;;;;;;;;;5086972;28;20062;-73
2022/11/22 00:33:11;;;;;;;4.65;2.40;;;;;;;;;;5085838;28;20507;-75
2022/11/22 00:35:40;;;;;;;12.52;2.78;;;;;;;;;;5086044;28;20052;-72
2022/11/22 00:38:10;;;;;;;9.02;2.72;;;;;;;;;;5086085;28;20051;-73
2022/11/22 00:40:40;;;;;;;16.48;3.65;;;;;;;;;;5068278;28;20059;-70
2022/11/22 00:43:10;;;;;;;15.57;2.85;;;;;;;;;;5086402;28;20051;-71
2022/11/22 00:45:40;;;;;;;11.82;2.95;;;;;;;;;;5086050;28;20616;-72
2022/11/22 00:48:12;;;;;;;13.57;2.88;;;;;;;;;;5085434;28;20043;-73
2022/11/22 00:50:41;;;;;;;12.98;3.20;;;;;;;;;;5085429;28;20047;-69
2022/11/22 00:53:11;;;;;;;9.85;3.10;;;;;;;;;;5084574;28;20055;-70
2022/11/22 00:55:41;;;;;;;10.27;3.17;;;;;;;;;;5085597;28;20680;-73
2022/11/22 00:58:12;;;;;;;15.60;2.97;;;;;;;;;;5082993;28;20525;-73
2022/11/22 01:00:42;;;;;;;8.63;2.70;;;;;;;;;;5084523;28;20515;-70
2022/11/22 01:03:13;;;;;;;6.32;2.60;;;;;;;;;;5085984;28;20040;-74
2022/11/22 01:05:43;;;;;;;9.50;2.70;;;;;;;;;;5086479;28;20044;-73
2022/11/22 01:08:15;;;;;;;6.70;2.92;;;;;;;;;;5088715;28;20047;-74
2022/11/22 01:10:45;;;;;;;9.55;3.17;;;;;;;;;;5089116;28;20044;-70
2022/11/22 01:13:15;;;;;;;10.85;3.38;;;;;;;;;;5088154;28;20067;-73
2022/11/22 01:15:45;;;;;;;6.22;2.53;;;;;;;;;;5089188;28;20074;-72
2022/11/22 01:18:14;;;;;;;5.97;2.47;;;;;;;;;;5089420;28;20056;-71
2022/11/22 01:20:44;;;;;;;8.73;3.15;;;;;;;;;;5089672;28;20044;-71
2022/11/22 01:23:14;;;;;;;17.83;4.00;;;;;;;;;;5090012;28;20683;-72
2022/11/22 01:25:44;;;;;;;10.48;2.90;;;;;;;;;;5089200;28;20047;-72
2022/11/22 01:28:14;;;;;;;9.20;3.13;;;;;;;;;;5089850;28;20040;-72
2022/11/22 01:30:44;;;;;;;11.13;3.15;;;;;;;;;;5090029;28;20486;-71
2022/11/22 01:33:14;;;;;;;15.80;3.33;;;;;;;;;;5089163;28;20052;-73
2022/11/22 01:35:44;;;;;;;12.55;2.58;;;;;;;;;;5090560;28;20052;-70
2022/11/22 01:38:14;;;;;;;16.30;3.08;;;;;;;;;;5089818;28;20050;-71
2022/11/22 01:40:44;;;;;;;18.92;4.03;;;;;;;;;;5071184;28;20052;-69
2022/11/22 01:43:18;;;;;;;13.05;3.30;;;;;;;;;;5089583;28;20059;-69
2022/11/22 01:45:54;;;;;;;17.50;2.88;;;;;;;;;;5089255;28;20052;-69
2022/11/22 01:48:37;;;;;;;11.48;2.65;;;;;;;;;;5071737;28;20503;-68
2022/11/22 01:51:29;;;;;;;18.45;3.40;;;;;;;;;;5089623;28;20040;-70
2022/11/22 01:54:04;;;;;;;10.25;2.67;;;;;;;;;;5089369;28;20044;-69
2022/11/22 01:56:37;;;;;;;10.63;3.15;;;;;;;;;;5089149;28;20051;-68
2022/11/22 01:59:12;;;;;;;16.40;3.05;;;;;;;;;;5070582;28;20059;-70
2022/11/22 02:01:42;;;;;;;;;;;;;;;;;;5071353;28;20044;-69
2022/11/22 02:04:16;;;;;;;13.57;2.65;;;;;;;;;;5069945;28;19924;-69
2022/11/22 02:07:06;;;;;;;14.43;2.97;;;;;;;;;;5089329;28;20052;-70
2022/11/22 02:09:38;;;;;;;9.98;3.10;;;;;;;;;;5079833;28;20874;-68
2022/11/22 02:12:11;;;;;;;11.18;2.72;;;;;;;;;;5089134;28;20048;-68
2022/11/22 02:14:42;;;;;;;17.48;2.78;;;;;;;;;;5089342;28;20048;-70
2022/11/22 02:17:12;;;;;;;10.00;2.65;;;;;;;;;;5087895;28;20521;-69
2022/11/22 02:19:44;;;;;;;14.45;2.85;;;;;;;;;;5088446;28;20048;-68
2022/11/22 02:22:39;;;;;;;11.55;3.17;;;;;;;;;;5088948;28;20044;-70
2022/11/22 02:25:13;;;;;;;15.80;2.88;;;;;;;;;;5089087;28;20055;-70
2022/11/22 02:27:43;;;;;;;9.55;3.63;;;;;;;;;;5088842;28;20055;-69
2022/11/22 02:30:13;;;;;;;14.35;3.17;;;;;;;;;;5088642;28;20505;-68
2022/11/22 02:32:43;;;;;;;10.27;3.75;;;;;;;;;;5088862;28;20529;-70
2022/11/22 02:35:23;;;;;;;7.47;3.05;;;;;;;;;;5088724;28;20075;-70
2022/11/22 02:38:04;;;;;;;11.63;3.28;;;;;;;;;;5088708;28;20036;-69
2022/11/22 02:40:41;;;;;;;14.60;3.28;;;;;;;;;;5088061;28;20044;-69
2022/11/22 02:43:16;;;;;;;11.40;3.60;;;;;;;;;;5070654;28;20834;-70
2022/11/22 02:45:46;;;;;;;7.00;3.28;;;;;;;;;;5088323;28;20048;-69
2022/11/22 02:48:18;;;;;;;8.73;3.65;;;;;;;;;;5088867;28;20494;-70
2022/11/22 02:50:48;;;;;;;12.02;3.40;;;;;;;;;;5088589;28;20051;-68
2022/11/22 02:53:18;;;;;;;15.80;3.88;;;;;;;;;;5087934;28;20056;-70
2022/11/22 02:55:47;;;;;;;9.88;3.78;;;;;;;;;;5088420;28;20509;-69
2022/11/22 02:58:17;;;;;;;19.13;4.55;;;;;;;;;;5087793;28;20040;-69
2022/11/22 03:00:47;;;;;;;6.88;3.25;;;;;;;;;;5087529;28;20055;-68
2022/11/22 03:03:18;;;;;;;9.57;3.05;;;;;;;;;;5087511;28;20059;-68
2022/11/22 03:05:47;;;;;;;5.13;3.17;;;;;;;;;;5088440;28;20110;-68
2022/11/22 03:08:17;;;;;;;9.57;3.03;;;;;;;;;;5088089;28;20054;-69
2022/11/22 03:10:47;;;;;;;5.47;3.78;;;;;;;;;;5069345;28;20123;-68
2022/11/22 03:13:17;;;;;;;12.25;3.60;;;;;;;;;;5088275;28;20055;-70
2022/11/22 03:15:47;;;;;;;8.98;3.75;;;;;;;;;;5069609;28;20055;-69
2022/11/22 03:18:17;;;;;;;11.38;3.60;;;;;;;;;;5088077;28;20063;-70
2022/11/22 03:20:46;;;;;;;16.88;4.63;;;;;;;;;;5087909;28;20040;-68
2022/11/22 03:23:16;;;;;;;8.52;2.97;;;;;;;;;;5088342;28;20059;-69
2022/11/22 03:25:46;;;;;;;9.35;3.47;;;;;;;;;;5087663;28;20052;-69
2022/11/22 03:28:16;;;;;;;14.02;4.40;;;;;;;;;;5068660;28;20526;-70
2022/11/22 03:30:45;;;;;;;11.27;3.38;;;;;;;;;;5087494;28;20850;-70
2022/11/22 03:33:15;;;;;;;15.85;3.80;;;;;;;;;;5086951;28;20048;-70
2022/11/22 03:35:45;;;;;;;5.82;3.20;;;;;;;;;;5087444;28;20418;-70
2022/11/22 03:38:15;;;;;;;9.20;3.70;;;;;;;;;;5087556;28;20048;-69
2022/11/22 03:40:47;;;;;;;11.15;4.53;;;;;;;;;;5087385;28;20055;-69
2022/11/22 03:56:00;;;;;;;7.32;2.08;;;;;;;;;;5125214;27;20230;-78
2022/11/22 03:58:30;;;;;;;3.90;1.63;;;;;;;;;;5103820;28;20054;-76
2022/11/22 04:01:01;;;;;;;3.63;1.50;;;;;;;;;;5103427;28;20032;-76
2022/11/22 04:03:31;;;;;;;1.90;1.27;;;;;;;;;;5103708;28;20414;-77
2022/11/22 04:06:00;;;;;;;4.45;1.40;;;;;;;;;;5103393;28;20536;-76
2022/11/22 04:08:30;;;;;;;3.03;1.30;;;;;;;;;;5104111;28;20532;-77
2022/11/22 04:11:01;;;;;;;3.47;1.20;;;;;;;;;;5103460;28;20043;-77
2022/11/22 04:16:19;;;;;;;4.25;1.33;;;;;;;;;;5101647;28;20059;-77
2022/11/22 04:18:50;;;;;;;3.17;1.15;;;;;;;;;;5102898;28;20047;-77
2022/11/22 04:21:35;;;;;;;3.58;1.35;;;;;;;;;;5103523;28;20402;-76
2022/11/22 04:26:57;;;;;;;2.40;1.00;;;;;;;;;;5103486;28;20050;-77
2022/11/22 04:29:30;;;;;;;4.70;1.60;;;;;;;;;;5103138;28;20055;-77
2022/11/22 04:34:51;;;;;;;3.67;1.25;;;;;;;;;;5103167;28;20052;-76
2022/11/22 04:37:21;;;;;;;1.58;1.27;;;;;;;;;;5103096;28;20052;-76
2022/11/22 04:39:51;;;;;;;1.23;1.05;;;;;;;;;;5101356;28;20051;-76
2022/11/22 04:45:09;;;;;;;1.90;1.00;;;;;;;;;;5085844;28;20616;-77
2022/11/22 04:53:18;;;;;;;2.90;1.10;;;;;;;;;;5082424;28;20044;-76
2022/11/22 04:55:48;;;;;;;2.10;0.90;;;;;;;;;;5075564;28;20044;-76
2022/11/22 04:58:19;;;;;;;2.88;1.02;;;;;;;;;;5068064;28;20052;-76
2022/11/22 05:00:49;;;;;;;1.63;1.08;;;;;;;;;;5068954;28;20048;-76
2022/11/22 05:03:19;;;;;;;2.65;1.05;;;;;;;;;;5069115;28;20061;-76
2022/11/22 05:05:49;;;;;;;2.22;0.98;;;;;;;;;;5068876;28;20052;-76
2022/11/22 05:08:19;;;;;;;3.17;0.98;;;;;;;;;;5068864;28;20056;-75
2022/11/22 05:10:56;;;;;;;1.10;1.00;;;;;;;;;;5068540;28;20411;-75
2022/11/22 05:13:32;;;;;;;2.50;0.80;;;;;;;;;;5067026;28;20056;-75
2022/11/22 05:16:05;;;;;;;3.05;0.85;;;;;;;;;;5067365;28;20053;-75
2022/11/22 05:18:36;;;;;;;1.15;0.90;;;;;;;;;;5068552;28;20052;-75
2022/11/22 05:21:09;;;;;;;2.22;1.13;;;;;;;;;;5066788;28;20063;-75
2022/11/22 05:23:55;;;;;;;2.63;1.17;;;;;;;;;;5068699;28;20044;-75
2022/11/22 05:26:28;;;;;;;2.70;0.90;;;;;;;;;;5066892;28;20419;-75
2022/11/22 05:29:01;;;;;;;1.02;0.80;;;;;;;;;;5068789;28;20045;-75
2022/11/22 05:31:33;;;;;;;1.02;0.93;;;;;;;;;;5067241;28;20052;-75
2022/11/22 05:34:04;;;;;;;1.55;0.95;;;;;;;;;;5066490;28;20053;-75
2022/11/22 05:36:34;;;;;;;2.08;0.93;;;;;;;;;;5068625;28;20053;-75
2022/11/22 05:39:04;;;;;;;1.55;1.00;;;;;;;;;;5067618;28;20045;-76
2022/11/22 05:41:34;;;;;;;2.00;0.98;;;;;;;;;;5067776;28;20057;-75
2022/11/22 05:44:04;;;;;;;2.03;1.05;;;;;;;;;;5066624;28;20044;-75
2022/11/22 05:46:33;;;;;;;1.58;1.10;;;;;;;;;;5068118;28;20045;-75
2022/11/22 05:49:04;;;;;;;1.48;1.10;;;;;;;;;;5049687;28;20138;-75
2022/11/22 05:51:34;;;;;;;4.00;1.05;;;;;;;;;;5066310;28;20052;-75
2022/11/22 05:54:04;;;;;;;1.50;1.00;;;;;;;;;;5065389;28;20044;-75
2022/11/22 05:56:34;;;;;;;1.70;1.05;;;;;;;;;;5067444;28;20044;-75
2022/11/22 05:59:03;;;;;;;2.15;1.20;;;;;;;;;;5067795;28;20045;-76
2022/11/22 06:01:33;;;;;;;2.72;1.35;;;;;;;;;;5070066;28;20079;-76
2022/11/22 06:04:03;;;;;;;2.63;1.20;;;;;;;;;;5068503;28;20063;-75
2022/11/22 06:06:33;;;;;;;4.10;1.40;;;;;;;;;;5051823;28;20053;-75
2022/11/22 06:09:04;;;;;;;4.00;1.35;;;;;;;;;;5067542;28;20044;-75
2022/11/22 06:11:34;;;;;;;2.42;1.38;;;;;;;;;;5067778;28;20045;-75
2022/11/22 06:14:08;;;;;;;2.13;1.45;;;;;;;;;;5069713;28;20511;-75
2022/11/22 06:16:38;;;;;;;2.45;1.25;;;;;;;;;;5069968;28;20064;-76
2022/11/22 06:19:08;;;;;;;4.70;1.58;;;;;;;;;;5067985;28;20060;-75
2022/11/22 06:21:38;;;;;;;3.55;1.30;;;;;;;;;;5068195;28;20044;-74
2022/11/22 06:24:09;;;;;;;2.40;1.30;;;;;;;;;;5067356;28;20051;-75
2022/11/22 06:26:39;;;;;;;2.53;1.50;;;;;;;;;;5051354;28;20434;-75
2022/11/22 06:29:09;;;;;;;1.60;1.20;;;;;;;;;;5067119;28;20052;-75
2022/11/22 06:31:39;;;;;;;2.13;1.40;;;;;;;;;;5051462;28;20060;-75
2022/11/22 06:34:12;;;;;;;2.63;1.38;;;;;;;;;;5050803;28;20404;-74
2022/11/22 06:36:43;;;;;;;1.88;1.33;;;;;;;;;;5068975;28;20055;-75
2022/11/22 06:39:13;;;;;;;2.28;1.30;;;;;;;;;;5067218;28;20446;-75
2022/11/22 06:41:43;;;;;;;2.03;1.30;;;;;;;;;;5067409;28;20063;-74
2022/11/22 06:44:13;;;;;;;3.72;1.60;;;;;;;;;;5069049;28;20538;-75
2022/11/22 06:46:44;;;;;;;5.05;1.80;;;;;;;;;;5050498;28;20574;-75
2022/11/22 06:49:14;;;;;;;3.47;1.27;;;;;;;;;;5068675;28;20044;-75
2022/11/22 06:51:44;;;;;;;2.15;1.40;;;;;;;;;;5068321;28;20048;-74
2022/11/22 06:54:14;;;;;;;3.95;1.25;;;;;;;;;;5066732;28;20419;-75
2022/11/22 06:56:44;;;;;;;2.67;1.42;;;;;;;;;;5068723;28;20048;-74
2022/11/22 06:59:14;;;;;;;3.90;1.30;;;;;;;;;;5066600;28;20052;-74
2022/11/22 07:01:43;;;;;;;2.97;1.45;;;;;;;;;;5068749;28;20055;-75
2022/11/22 07:04:14;;;;;;;3.20;1.40;;;;;;;;;;5066475;28;20064;-74
2022/11/22 07:06:43;;;;;;;2.35;1.40;;;;;;;;;;5068439;28;20048;-75
2022/11/22 07:09:13;;;;;;;3.17;1.40;;;;;;;;;;5067677;28;20059;-75
2022/11/22 07:11:43;;;;;;;2.30;1.23;;;;;;;;;;5068015;28;20047;-75
2022/11/22 07:14:13;;;;;;;2.88;1.42;;;;;;;;;;5068901;28;20063;-74
2022/11/22 07:16:43;;;;;;;1.70;1.40;;;;;;;;;;5067242;28;20063;-75
2022/11/22 07:19:13;;;;;;;2.20;1.30;;;;;;;;;;5066365;28;20044;-74
2022/11/22 07:21:43;;;;;;;1.70;1.30;;;;;;;;;;5068215;28;20037;-75
2022/11/22 07:24:13;;;;;;;2.33;1.42;;;;;;;;;;5066677;28;20067;-74
2022/11/22 07:26:44;;;;;;;2.58;1.60;;;;;;;;;;5067004;28;20509;-74
2022/11/22 07:29:14;;;;;;;1.90;1.30;;;;;;;;;;5067865;28;20040;-75
2022/11/22 07:31:45;;;;;;;3.25;1.20;;;;;;;;;;5065326;28;20525;-74
2022/11/22 07:34:15;;;;;;;3.33;1.60;;;;;;;;;;5066825;28;20498;-74
2022/11/22 07:36:45;;;;;;;4.07;1.60;;;;;;;;;;5067549;28;20063;-75
2022/11/22 07:39:15;;;;;;;1.70;1.23;;;;;;;;;;5067575;28;20036;-74
2022/11/22 07:41:45;;;;;;;3.85;1.33;;;;;;;;;;5065857;28;20048;-74
2022/11/22 07:44:15;;;;;;;3.88;1.42;;;;;;;;;;5067470;28;20329;-76
2022/11/22 07:46:46;;;;;;;2.22;1.48;;;;;;;;;;5066428;28;20052;-74
2022/11/22 07:49:17;;;;;;;3.38;2.00;;;;;;;;;;5067434;28;20541;-75
2022/11/22 07:51:47;;;;;;;2.20;1.65;;;;;;;;;;5067196;28;20040;-74
2022/11/22 07:54:17;;;;;;;3.90;2.00;;;;;;;;;;5066401;28;20061;-75
2022/11/22 07:56:47;;;;;;;3.60;1.83;;;;;;;;;;5068352;28;20434;-75
2022/11/22 07:59:17;;;;;;;5.15;1.83;;;;;;;;;;5066259;28;20056;-75
2022/11/22 08:01:47;;;;;;;2.30;1.40;;;;;;;;;;5049864;28;20063;-74
2022/11/22 08:04:18;;;;;;;2.65;1.52;;;;;;;;;;5068342;28;20044;-74
2022/11/22 08:06:49;;;;;;;4.32;1.80;;;;;;;;;;5066743;28;20052;-75
2022/11/22 08:09:19;;;;;;;3.55;1.52;;;;;;;;;;5067722;28;20049;-74
2022/11/22 08:11:50;;;;;;;2.95;1.80;;;;;;;;;;5066590;28;20051;-75
2022/11/22 08:14:21;;;;;;;5.20;1.92;;;;;;;;;;5067480;28;20064;-74
2022/11/22 08:16:51;;;;;;;1.98;1.70;;;;;;;;;;5067593;28;20057;-75
2022/11/22 08:19:21;;;;;;;5.93;2.00;;;;;;;;;;5065895;28;20503;-74
2022/11/22 08:21:51;;;;;;;3.17;1.80;;;;;;;;;;5067049;28;20430;-74
2022/11/22 08:24:26;;;;;;;;;;;;;;;;;;5065457;28;20044;-74
2022/11/22 08:26:56;;;;;;;2.88;1.70;;;;;;;;;;5066287;28;19924;-74
2022/11/22 08:29:28;;;;;;;5.93;2.08;;;;;;;;;;5066439;28;20415;-74
2022/11/22 08:31:59;;;;;;;2.80;2.40;;;;;;;;;;5070823;28;20067;-74
2022/11/22 08:34:29;;;;;;;3.95;2.03;;;;;;;;;;5070062;28;20403;-74
2022/11/22 08:36:59;;;;;;;3.53;2.10;;;;;;;;;;5070080;28;20052;-74
2022/11/22 08:39:30;;;;;;;4.55;2.40;;;;;;;;;;5071407;28;20049;-75
2022/11/22 08:42:00;;;;;;;4.25;2.13;;;;;;;;;;5072028;28;20067;-74
2022/11/22 08:44:29;;;;;;;3.92;2.17;;;;;;;;;;5070949;28;20045;-75
2022/11/22 08:46:59;;;;;;;5.15;2.50;;;;;;;;;;5070060;28;20048;-75
2022/11/22 08:49:29;;;;;;;9.35;3.95;;;;;;;;;;5070755;28;20044;-75
2022/11/22 08:51:59;;;;;;;10.70;6.32;;;;;;;;;;5068926;28;20056;-76
2022/11/22 08:54:29;;;;;;;8.40;4.53;;;;;;;;;;5068820;28;20520;-76
2022/11/22 08:57:05;;;;;;;10.68;5.15;;;;;;;;;;5068655;28;20049;-82
2022/11/22 08:59:35;;;;;;;10.80;5.65;;;;;;;;;;5069271;28;20044;-77
2022/11/22 09:02:05;;;;;;;8.68;5.43;;;;;;;;;;5069375;28;20049;-79
2022/11/22 09:04:35;;;;;;;12.60;8.45;;;;;;;;;;5068939;28;20053;-76
2022/11/22 09:07:05;;;;;;;9.05;5.13;;;;;;;;;;5068638;28;20055;-75
2022/11/22 09:20:37;;;;;;;8.48;5.00;;;;;;;;;;5124643;27;20495;-76
2022/11/22 09:23:08;;;;;;;8.63;5.30;;;;;;;;;;5124975;28;20035;-76
2022/11/22 09:25:38;;;;;;;6.18;4.50;;;;;;;;;;5124320;28;20047;-75
2022/11/22 09:28:07;;;;;;;5.72;3.70;;;;;;;;;;5123478;28;20043;-74
2022/11/22 09:30:37;;;;;;;4.32;3.20;;;;;;;;;;5124412;28;20047;-74
2022/11/22 09:33:09;;;;;;;4.78;3.30;;;;;;;;;;5123981;28;20044;-75
2022/11/22 09:35:40;;;;;;;5.95;3.45;;;;;;;;;;5122468;28;20062;-75
2022/11/22 09:38:09;;;;;;;4.55;3.47;;;;;;;;;;5123829;28;20040;-75
2022/11/22 09:40:44;;;;;;;4.55;3.25;;;;;;;;;;5123311;28;20066;-75
2022/11/22 09:43:38;;;;;;;6.10;3.55;;;;;;;;;;5124435;28;20047;-75
2022/11/22 09:46:34;;;;;;;7.60;3.13;;;;;;;;;;5123215;28;20067;-76
2022/11/22 09:49:25;;;;;;;4.80;3.03;;;;;;;;;;5123793;28;20688;-75
2022/11/22 09:52:02;;;;;;;4.80;2.67;;;;;;;;;;5123252;28;20047;-73
2022/11/22 09:55:08;;;;;;;4.75;2.53;;;;;;;;;;5123216;28;20051;-73
2022/11/22 09:57:47;;;;;;;4.68;3.72;;;;;;;;;;5100670;27;20052;-73
2022/11/22 10:00:21;;;;;;;5.53;3.40;;;;;;;;;;5123751;28;20059;-73
2022/11/22 10:03:07;;;;;;;4.07;2.95;;;;;;;;;;5123231;28;20595;-73
2022/11/22 10:05:44;;;;;;;3.67;2.80;;;;;;;;;;5123627;28;20044;-73
2022/11/22 10:08:44;;;;;;;8.65;3.42;;;;;;;;;;5121248;28;21215;-75
2022/11/22 10:11:35;;;;;;;5.35;2.63;;;;;;;;;;5124060;28;20047;-75
2022/11/22 10:14:33;;;;;;;3.85;2.55;;;;;;;;;;5122944;28;20043;-80
2022/11/22 10:17:24;;;;;;;4.78;2.80;;;;;;;;;;5123352;28;20043;-74
2022/11/22 10:20:16;;;;;;;7.32;2.60;;;;;;;;;;5134397;27;20058;-75
2022/11/22 10:22:47;;;;;;;4.75;2.63;;;;;;;;;;5130091;27;20047;-74
2022/11/22 10:25:22;;;;;;;3.75;2.42;;;;;;;;;;5129913;27;20417;-74
2022/11/22 10:28:10;;;;;;;6.43;2.28;;;;;;;;;;5130098;27;20152;-76
2022/11/22 10:30:47;;;;;;;4.32;2.67;;;;;;;;;;5129227;27;20412;-76
2022/11/22 10:33:32;;;;;;;5.15;2.97;;;;;;;;;;5130104;27;20047;-74
2022/11/22 10:36:41;;;;;;;4.38;2.97;;;;;;;;;;5129647;27;20524;-74
2022/11/22 10:39:18;;;;;;;4.18;2.65;;;;;;;;;;5129942;27;20050;-75
2022/11/22 10:42:18;;;;;;;3.33;2.55;;;;;;;;;;5130423;27;20039;-77
2022/11/22 10:45:00;;;;;;;3.90;2.75;;;;;;;;;;5098483;27;20062;-79
2022/11/22 10:47:47;;;;;;;4.78;2.17;;;;;;;;;;5129906;27;20500;-75
2022/11/22 10:50:33;;;;;;;5.13;1.95;;;;;;;;;;5129016;27;20051;-76
2022/11/22 10:53:06;;;;;;;4.53;2.33;;;;;;;;;;5129330;27;20476;-76
2022/11/22 10:55:49;;;;;;;3.78;2.15;;;;;;;;;;5129475;27;20039;-76
2022/11/22 10:58:40;;;;;;;6.55;2.38;;;;;;;;;;5129015;27;20050;-76
2022/11/22 11:01:44;;;;;;;4.63;2.25;;;;;;;;;;5129207;27;20055;-75
2022/11/22 11:04:16;;;;;;;4.07;2.83;;;;;;;;;;5129114;27;20043;-74
2022/11/22 11:06:57;;;;;;;5.82;2.85;;;;;;;;;;5129084;27;20532;-75
2022/11/22 11:09:47;;;;;;;8.38;3.67;;;;;;;;;;5128744;27;20044;-75
2022/11/22 11:12:52;;;;;;;13.45;3.92;;;;;;;;;;5128203;27;20047;-81
2022/11/22 11:15:23;;;;;;;5.80;3.67;;;;;;;;;;5129811;27;20047;-77
2022/11/22 11:18:00;;;;;;;7.18;3.92;;;;;;;;;;5129005;27;20039;-73
2022/11/22 11:20:37;;;;;;;8.05;3.08;;;;;;;;;;5128930;27;20056;-78
2022/11/22 11:23:10;;;;;;;7.88;2.88;;;;;;;;;;5128729;27;20043;-77
2022/11/22 11:25:46;;;;;;;6.15;2.85;;;;;;;;;;5126570;27;20531;-80
2022/11/22 11:28:20;;;;;;;4.88;2.90;;;;;;;;;;5127628;27;20047;-78
2022/11/22 11:30:57;;;;;;;3.80;2.08;;;;;;;;;;5128210;27;20535;-77
2022/11/22 11:33:34;;;;;;;7.20;3.60;;;;;;;;;;5128169;27;20047;-76
2022/11/22 11:36:07;;;;;;;4.47;2.30;;;;;;;;;;5128054;27;20696;-77
2022/11/22 11:38:53;;;;;;;3.88;2.38;;;;;;;;;;5128914;27;20043;-76
2022/11/22 11:41:33;;;;;;;4.85;2.50;;;;;;;;;;5128114;27;20055;-76
2022/11/22 11:44:25;;;;;;;3.53;2.65;;;;;;;;;;5128490;27;20043;-77
2022/11/22 11:46:55;;;;;;;4.30;2.45;;;;;;;;;;5127301;27;20046;-78
2022/11/22 11:49:28;;;;;;;4.57;1.70;;;;;;;;;;5127920;27;20398;-77
2022/11/22 11:52:03;;;;;;;3.20;2.13;;;;;;;;;;5128427;27;20062;-77
2022/11/22 11:54:42;;;;;;;4.53;2.45;;;;;;;;;;5128017;27;20401;-77
2022/11/22 11:57:18;;;;;;;5.82;2.75;;;;;;;;;;5128240;27;20090;-76
2022/11/22 11:59:50;;;;;;;4.25;2.08;;;;;;;;;;5127969;27;20035;-76
2022/11/22 12:02:29;;;;;;;3.70;2.25;;;;;;;;;;5127964;27;20047;-78
2022/11/22 12:05:20;;;;;;;3.35;2.08;;;;;;;;;;5128834;27;20043;-76
2022/11/22 12:07:50;;;;;;;3.75;1.92;;;;;;;;;;5128135;27;20047;-75
2022/11/22 12:10:48;;;;;;;2.10;1.45;;;;;;;;;;5127952;27;20055;-76
2022/11/22 12:13:21;;;;;;;1.73;1.50;;;;;;;;;;5128259;27;20047;-75
2022/11/22 12:16:18;;;;;;;3.53;1.70;;;;;;;;;;5127839;27;20043;-75
2022/11/22 12:18:53;;;;;;;3.13;1.58;;;;;;;;;;5127431;27;20047;-74
2022/11/22 12:21:32;;;;;;;3.85;1.55;;;;;;;;;;5128324;27;20065;-74
2022/11/22 12:24:09;;;;;;;3.83;2.20;;;;;;;;;;5128699;27;20050;-74
2022/11/22 12:26:59;;;;;;;3.95;2.90;;;;;;;;;;5127293;27;20039;-74
2022/11/22 12:29:33;;;;;;;3.15;1.90;;;;;;;;;;5127916;27;20054;-74
2022/11/22 12:32:14;;;;;;;3.22;1.65;;;;;;;;;;5127397;27;20054;-74
2022/11/22 12:34:47;;;;;;;4.13;1.55;;;;;;;;;;5127652;27;20058;-73
2022/11/22 12:37:28;;;;;;;2.03;1.70;;;;;;;;;;5126253;27;20043;-74
2022/11/22 12:40:04;;;;;;;2.85;1.95;;;;;;;;;;5125294;27;20043;-75
2022/11/22 12:42:46;;;;;;;4.18;2.53;;;;;;;;;;5127077;27;20681;-74
2022/11/22 12:45:22;;;;;;;;;;;;;;;;;;5128488;27;20050;-75
2022/11/22 12:47:54;;;;;;;2.80;1.92;;;;;;;;;;5127680;27;19927;-75
2022/11/22 12:50:38;;;;;;;2.92;2.00;;;;;;;;;;5127440;27;20047;-75
2022/11/22 12:53:13;;;;;;;6.53;2.28;;;;;;;;;;5126039;27;20531;-76
2022/11/22 12:56:01;;;;;;;4.43;2.53;;;;;;;;;;5128252;27;20539;-75
2022/11/22 12:58:58;;;;;;;5.70;2.10;;;;;;;;;;5127291;27;20039;-75
2022/11/22 13:01:36;;;;;;;2.50;2.10;;;;;;;;;;5127185;27;20050;-76
2022/11/22 13:04:08;;;;;;;3.50;2.20;;;;;;;;;;5127300;27;20043;-76
2022/11/22 13:06:44;;;;;;;2.72;2.20;;;;;;;;;;5127332;27;20047;-75
2022/11/22 13:09:25;;;;;;;;;;;;;;;;;;5128368;28;20378;-75
2022/11/22 13:11:59;;;;;;;2.58;2.00;;;;;;;;;;5126847;28;19923;-76
2022/11/22 13:14:52;;;;;;;3.90;2.58;;;;;;;;;;5126042;27;20063;-77
2022/11/22 13:17:25;;;;;;;3.15;2.40;;;;;;;;;;5126570;28;20043;-80
2022/11/22 13:20:04;;;;;;;3.97;2.33;;;;;;;;;;5126955;28;20055;-79
2022/11/22 13:23:09;;;;;;;5.47;2.22;;;;;;;;;;5125771;28;20050;-77
2022/11/22 13:26:21;;;;;;;3.10;2.35;;;;;;;;;;5043412;28;20060;-76
2022/11/22 13:28:52;;;;;;;4.03;2.75;;;;;;;;;;5127121;28;20046;-76
2022/11/22 13:31:23;;;;;;;4.78;3.08;;;;;;;;;;5127139;28;20051;-76
2022/11/22 13:33:59;;;;;;;2.28;1.90;;;;;;;;;;5126500;28;20062;-76
2022/11/22 13:36:35;;;;;;;2.65;1.90;;;;;;;;;;5126615;28;20121;-76
2022/11/22 13:39:15;;;;;;;3.03;1.98;;;;;;;;;;5126788;28;20055;-76
2022/11/22 13:42:01;;;;;;;3.13;1.52;;;;;;;;;;5126830;28;20043;-76
2022/11/22 13:44:32;;;;;;;3.28;1.98;;;;;;;;;;5126682;28;20489;-76
2022/11/22 13:47:03;;;;;;;1.58;1.48;;;;;;;;;;5126926;28;20115;-76
2022/11/22 13:49:36;;;;;;;4.88;2.08;;;;;;;;;;5126640;28;20508;-76
2022/11/22 13:52:14;;;;;;;2.72;1.85;;;;;;;;;;5126962;28;20039;-74
2022/11/22 13:54:47;;;;;;;7.65;6.05;;;;;;;;;;5126816;27;20043;-74
2022/11/22 13:57:41;;;;;;;1.80;1.52;;;;;;;;;;5130661;27;20046;-76
2022/11/22 14:00:14;;;;;;;2.60;2.40;;;;;;;;;;5130505;27;20047;-74
2022/11/22 14:02:47;;;;;;;1.90;1.80;;;;;;;;;;5130579;27;20453;-75
2022/11/22 14:05:22;;;;;;;1.48;1.38;;;;;;;;;;5130635;27;20043;-75
2022/11/22 14:07:54;;;;;;;3.22;1.55;;;;;;;;;;5130969;27;20047;-73
2022/11/22 14:10:27;;;;;;;3.10;1.70;;;;;;;;;;5130357;27;20548;-74
2022/11/22 14:13:12;;;;;;;2.42;1.48;;;;;;;;;;5130272;27;20039;-73
2022/11/22 14:15:59;;;;;;;3.25;1.92;;;;;;;;;;5130181;27;20046;-75
2022/11/22 14:18:42;;;;;;;2.97;2.10;;;;;;;;;;5129390;27;20501;-72
2022/11/22 14:21:24;;;;;;;2.20;1.70;;;;;;;;;;5130523;27;20106;-73
2022/11/22 14:24:11;;;;;;;;;;;;;;;;;;5130006;27;20065;-74
2022/11/22 14:27:12;;;;;;;2.60;1.67;;;;;;;;;;5130257;27;19923;-75
2022/11/22 14:30:15;;;;;;;1.75;1.60;;;;;;;;;;5130198;27;20054;-73
2022/11/22 14:33:00;;;;;;;1.58;1.48;;;;;;;;;;5129138;27;20548;-72
2022/11/22 14:35:35;;;;;;;1.77;1.50;;;;;;;;;;5129659;27;20039;-75
2022/11/22 14:38:09;;;;;;;1.88;1.25;;;;;;;;;;5130104;27;20047;-74
2022/11/22 14:40:40;;;;;;;2.05;1.50;;;;;;;;;;5128684;27;20043;-72
2022/11/22 14:43:51;;;;;;;2.42;1.60;;;;;;;;;;5129754;27;20452;-74
2022/11/22 14:46:22;;;;;;;1.60;1.30;;;;;;;;;;5045859;28;20096;-74
2022/11/22 14:49:37;;;;;;;1.20;1.10;;;;;;;;;;5046166;28;20059;-73
2022/11/22 14:52:30;;;;;;;1.52;1.42;;;;;;;;;;5118583;27;20059;-74
2022/11/22 14:55:07;;;;;;;1.83;1.50;;;;;;;;;;5129330;27;20059;-77
2022/11/22 14:57:38;;;;;;;3.33;1.65;;;;;;;;;;5129439;27;20035;-73
2022/11/22 15:00:18;;;;;;;2.03;1.83;;;;;;;;;;5129403;27;20078;-73
2022/11/22 15:03:24;;;;;;;1.67;1.42;;;;;;;;;;5129446;27;20473;-73
2022/11/22 15:05:54;;;;;;;1.30;1.20;;;;;;;;;;5129181;27;20057;-73
2022/11/22 15:09:05;;;;;;;1.60;1.20;;;;;;;;;;5128182;27;20536;-73
2022/11/22 15:12:04;;;;;;;1.27;1.10;;;;;;;;;;5128563;27;20039;-74
2022/11/22 15:15:18;;;;;;;2.03;1.05;;;;;;;;;;5127668;27;20422;-73
2022/11/22 15:18:20;;;;;;;5.53;2.83;;;;;;;;;;5076750;27;20528;-74
2022/11/22 15:21:37;;;;;;;1.65;1.33;;;;;;;;;;5129215;27;20398;-74
2022/11/22 15:24:30;;;;;;;1.15;1.05;;;;;;;;;;5128513;27;20047;-73
2022/11/22 15:27:32;;;;;;;2.47;1.50;;;;;;;;;;5128590;27;20497;-73
2022/11/22 15:30:25;;;;;;;1.35;1.17;;;;;;;;;;5128546;27;20416;-74
2022/11/22 15:33:36;;;;;;;2.67;1.45;;;;;;;;;;5129021;27;20043;-73
2022/11/22 15:36:30;;;;;;;1.33;1.23;;;;;;;;;;5129199;27;20465;-77
2022/11/22 15:39:27;;;;;;;2.30;1.17;;;;;;;;;;5128628;27;20082;-73
2022/11/22 15:42:19;;;;;;;1.05;0.95;;;;;;;;;;5128755;27;20054;-74
2022/11/22 15:45:13;;;;;;;1.95;1.13;;;;;;;;;;5125947;27;20048;-73
2022/11/22 15:48:09;;;;;;;1.50;0.98;;;;;;;;;;5128650;27;20043;-77
2022/11/22 15:51:14;;;;;;;1.65;0.90;;;;;;;;;;5127327;27;20522;-74
2022/11/22 15:54:04;;;;;;;6.03;1.17;;;;;;;;;;5127973;27;20051;-74
2022/11/22 15:57:02;;;;;;;4.30;1.20;;;;;;;;;;5127452;27;20054;-73
2022/11/22 15:59:45;;;;;;;2.58;2.15;;;;;;;;;;5127882;27;20058;-73
2022/11/22 16:02:21;;;;;;;1.30;0.90;;;;;;;;;;5128648;27;20050;-73
2022/11/22 16:04:57;;;;;;;1.10;0.95;;;;;;;;;;5128165;27;20501;-73
2022/11/22 16:07:48;;;;;;;2.83;1.00;;;;;;;;;;5127920;27;20050;-74
2022/11/22 16:10:18;;;;;;;1.17;0.85;;;;;;;;;;5127158;27;20055;-74
2022/11/22 16:12:50;;;;;;;0.80;0.80;;;;;;;;;;5128198;27;20528;-73
2022/11/22 16:15:26;;;;;;;0.55;0.55;;;;;;;;;;5128117;27;20047;-73
2022/11/22 16:18:26;;;;;;;0.70;0.70;;;;;;;;;;5127018;27;20043;-75